Time;durP1;ratioP1;P1;durP2;ratioP2;P2;SDS_P1;SDS_P2;PMS_P1;PMS_P2;Temp;Humidity;BMP_temperature;BMP_pressure;BME280_temperature;BME280_humidity;BME280_pressure;Samples;Min_cycle;Max_cycle;Signal;HPM_P1;HPM_P2
2022/03/16 00:01:45;;;;;;;67.80;35.60;;;3.70;82.70;;;;;;5108023;27;20035;-69
2022/03/16 00:04:11;;;;;;;61.63;36.03;;;3.70;82.70;;;;;;5107356;27;20413;-69
2022/03/16 00:06:37;;;;;;;58.20;34.83;;;3.70;82.80;;;;;;5071941;28;20075;-68
2022/03/16 00:09:02;;;;;;;60.13;33.93;;;3.60;82.80;;;;;;5087311;28;20052;-69
2022/03/16 00:11:28;;;;;;;68.50;36.47;;;3.60;82.90;;;;;;5068742;28;20050;-69
2022/03/16 00:13:54;;;;;;;65.17;34.80;;;3.60;83.00;;;;;;5119218;27;20063;-69
2022/03/16 00:16:20;;;;;;;65.00;37.20;;;3.60;83.10;;;;;;5054511;28;20130;-69
2022/03/16 00:18:45;;;;;;;73.50;38.27;;;3.60;83.20;;;;;;5088173;28;20035;-69
2022/03/16 00:21:11;;;;;;;70.43;36.27;;;3.60;83.10;;;;;;5087206;28;20040;-68
2022/03/16 00:23:37;;;;;;;67.27;34.97;;;3.60;83.30;;;;;;5071238;28;20040;-69
2022/03/16 00:26:03;;;;;;;64.70;36.33;;;3.60;83.30;;;;;;5069945;28;20035;-69
2022/03/16 00:28:29;;;;;;;65.10;36.42;;;3.50;83.30;;;;;;5087000;28;20036;-69
2022/03/16 00:30:54;;;;;;;67.30;38.30;;;3.50;83.40;;;;;;5086137;28;20036;-69
2022/03/16 00:33:20;;;;;;;61.53;35.30;;;3.60;83.30;;;;;;5087288;28;20833;-69
2022/03/16 00:35:46;;;;;;;63.60;35.03;;;3.60;83.40;;;;;;5083100;28;20176;-69
2022/03/16 00:38:14;;;;;;;66.70;35.87;;;3.50;83.30;;;;;;5061130;28;20043;-69
2022/03/16 00:40:40;;;;;;;70.78;35.83;;;3.50;83.30;;;;;;5099675;28;20126;-69
2022/03/16 00:43:06;;;;;;;68.78;37.70;;;3.50;83.30;;;;;;5121688;27;20032;-69
2022/03/16 00:45:31;;;;;;;66.17;36.80;;;3.50;83.40;;;;;;5103938;28;20090;-69
2022/03/16 00:47:57;;;;;;;64.70;36.63;;;3.50;83.50;;;;;;5086222;28;20082;-69
2022/03/16 00:50:23;;;;;;;80.70;39.50;;;3.50;83.40;;;;;;5102602;28;20040;-69
2022/03/16 00:52:49;;;;;;;73.53;37.23;;;3.50;83.50;;;;;;5068771;28;20032;-69
2022/03/16 00:55:15;;;;;;;66.17;34.80;;;3.50;83.80;;;;;;5085660;28;20142;-69
2022/03/16 00:57:40;;;;;;;65.93;36.10;;;3.50;83.70;;;;;;5119477;27;20100;-69
2022/03/16 01:00:07;;;;;;;67.70;36.00;;;3.50;83.60;;;;;;5084442;28;20035;-68
2022/03/16 01:02:33;;;;;;;67.38;37.22;;;3.50;83.70;;;;;;5102040;27;20040;-68
2022/03/16 01:04:59;;;;;;;66.10;35.17;;;3.50;83.60;;;;;;5058883;28;20097;-68
2022/03/16 01:07:25;;;;;;;64.87;34.97;;;3.40;83.70;;;;;;5090935;28;20052;-68
2022/03/16 01:09:52;;;;;;;60.67;32.78;;;3.40;83.70;;;;;;5093810;28;20048;-69
2022/03/16 01:12:17;;;;;;;59.15;33.95;;;3.40;83.90;;;;;;5127055;27;20055;-69
2022/03/16 01:14:43;;;;;;;58.57;32.30;;;3.40;83.80;;;;;;5109276;27;20412;-69
2022/03/16 01:17:09;;;;;;;59.90;33.17;;;3.30;83.80;;;;;;5126402;27;20036;-69
2022/03/16 01:19:35;;;;;;;66.07;35.37;;;3.30;83.80;;;;;;5093100;28;20046;-69
2022/03/16 01:22:05;;;;;;;59.50;34.77;;;3.30;83.90;;;;;;5074663;28;20040;-68
2022/03/16 01:24:31;;;;;;;63.28;33.88;;;3.30;83.90;;;;;;5075137;28;20408;-68
2022/03/16 01:26:57;;;;;;;59.70;33.25;;;3.20;83.90;;;;;;5089956;28;20150;-69
2022/03/16 01:29:26;;;;;;;63.95;34.00;;;3.20;83.80;;;;;;5126382;27;20122;-68
2022/03/16 01:31:53;;;;;;;63.85;34.50;;;3.20;83.80;;;;;;5121783;27;20047;-69
2022/03/16 01:34:19;;;;;;;66.15;34.53;;;3.20;84.10;;;;;;5074922;28;20043;-69
2022/03/16 01:36:46;;;;;;;63.47;34.63;;;3.10;84.10;;;;;;5073498;28;20067;-68
2022/03/16 01:39:12;;;;;;;69.60;36.47;;;3.10;84.00;;;;;;5059957;28;20043;-68
2022/03/16 01:41:37;;;;;;;61.63;33.67;;;3.10;84.00;;;;;;5087364;28;20037;-68
2022/03/16 01:44:04;;;;;;;67.83;34.37;;;3.10;84.10;;;;;;5088937;28;20043;-68
2022/03/16 01:46:29;;;;;;;64.60;33.88;;;3.20;84.00;;;;;;5073160;28;20044;-69
2022/03/16 01:48:55;;;;;;;61.27;35.07;;;3.20;84.00;;;;;;5074085;28;20051;-69
2022/03/16 01:51:22;;;;;;;56.03;32.37;;;3.20;84.00;;;;;;5056888;28;20044;-68
2022/03/16 01:53:48;;;;;;;70.03;35.38;;;3.10;84.10;;;;;;5073769;28;20053;-68
2022/03/16 01:56:18;;;;;;;61.63;35.00;;;3.10;84.10;;;;;;5057599;28;20040;-69
2022/03/16 01:58:44;;;;;;;55.95;32.65;;;3.10;84.10;;;;;;5091388;28;20072;-69
2022/03/16 02:01:09;;;;;;;64.25;33.70;;;3.00;84.00;;;;;;5124285;27;20047;-69
2022/03/16 02:03:35;;;;;;;60.73;33.67;;;3.00;84.00;;;;;;5110578;27;20036;-69
2022/03/16 02:06:02;;;;;;;63.77;33.63;;;3.00;84.00;;;;;;5073919;28;20115;-69
2022/03/16 02:08:29;;;;;;;69.95;37.25;;;2.90;84.10;;;;;;5107799;27;20054;-69
2022/03/16 02:10:55;;;;;;;68.13;34.80;;;2.90;84.10;;;;;;5090750;28;20056;-69
2022/03/16 02:13:21;;;;;;;62.50;34.43;;;2.90;84.10;;;;;;5108867;28;20028;-68
2022/03/16 02:15:46;;;;;;;66.57;35.73;;;2.90;84.10;;;;;;5053415;28;20066;-69
2022/03/16 02:18:13;;;;;;;67.33;36.17;;;2.90;84.20;;;;;;5104850;28;20100;-69
2022/03/16 02:20:39;;;;;;;64.32;33.85;;;2.90;84.30;;;;;;5103094;28;20125;-69
2022/03/16 02:23:07;;;;;;;61.42;35.45;;;2.90;84.30;;;;;;5104814;28;20036;-69
2022/03/16 02:25:34;;;;;;;58.53;33.30;;;2.80;84.30;;;;;;5086557;28;20112;-69
2022/03/16 02:28:00;;;;;;;65.18;34.53;;;2.80;84.30;;;;;;5087620;28;20555;-69
2022/03/16 02:30:27;;;;;;;64.53;34.55;;;2.80;84.30;;;;;;5088358;28;20556;-69
2022/03/16 02:32:53;;;;;;;64.25;34.42;;;2.80;84.20;;;;;;5104182;28;20070;-69
2022/03/16 02:35:21;;;;;;;65.22;35.28;;;2.80;84.40;;;;;;5092352;28;20050;-69
2022/03/16 02:37:47;;;;;;;71.75;37.85;;;2.70;84.30;;;;;;5085318;28;20040;-69
2022/03/16 02:40:18;;;;;;;68.37;35.73;;;2.70;84.40;;;;;;5106203;27;20373;-68
2022/03/16 02:42:44;;;;;;;64.85;36.08;;;2.70;84.50;;;;;;5089928;28;20289;-69
2022/03/16 02:45:09;;;;;;;78.53;36.43;;;2.60;84.50;;;;;;5088652;28;20044;-68
2022/03/16 02:47:39;;;;;;;71.00;37.20;;;2.60;84.60;;;;;;5067978;28;20036;-68
2022/03/16 02:50:06;;;;;;;68.38;36.05;;;2.60;84.60;;;;;;5089149;28;20070;-68
2022/03/16 02:52:32;;;;;;;67.80;35.58;;;2.60;84.60;;;;;;5104720;28;20522;-68
2022/03/16 02:54:57;;;;;;;73.43;37.57;;;2.60;84.80;;;;;;5070522;28;20109;-68
2022/03/16 02:57:23;;;;;;;70.70;38.87;;;2.60;85.10;;;;;;5104241;27;20122;-68
2022/03/16 02:59:49;;;;;;;70.17;36.00;;;2.60;85.10;;;;;;5066579;28;20093;-69
2022/03/16 03:02:15;;;;;;;70.20;38.50;;;2.60;85.00;;;;;;5069217;28;20044;-69
2022/03/16 03:04:40;;;;;;;69.97;36.40;;;2.60;84.90;;;;;;5055988;28;20417;-68
2022/03/16 03:07:07;;;;;;;73.13;38.97;;;2.60;84.80;;;;;;5089084;28;20115;-68
2022/03/16 03:09:33;;;;;;;69.05;35.78;;;2.50;84.80;;;;;;5093381;28;20059;-69
2022/03/16 03:11:59;;;;;;;66.27;36.10;;;2.50;84.90;;;;;;5106960;28;20070;-69
2022/03/16 03:14:26;;;;;;;64.95;35.75;;;2.40;84.90;;;;;;5082445;28;20058;-68
2022/03/16 03:16:52;;;;;;;71.10;36.80;;;2.40;84.80;;;;;;5076856;27;20450;-69
2022/03/16 03:19:17;;;;;;;67.83;35.33;;;2.40;84.80;;;;;;5097587;28;20036;-69
2022/03/16 03:21:43;;;;;;;63.77;36.40;;;2.40;84.80;;;;;;5058847;28;20048;-69
2022/03/16 03:24:09;;;;;;;69.53;36.03;;;2.40;85.00;;;;;;5059204;28;20032;-69
2022/03/16 03:26:35;;;;;;;67.00;36.57;;;2.40;84.90;;;;;;5095350;27;20039;-68
2022/03/16 03:29:01;;;;;;;82.20;40.92;;;2.40;85.00;;;;;;5075703;28;20674;-69
2022/03/16 03:31:27;;;;;;;64.45;34.88;;;2.30;85.00;;;;;;5058260;28;20047;-68
2022/03/16 03:33:53;;;;;;;72.53;36.87;;;2.30;85.00;;;;;;5091334;28;20043;-69
2022/03/16 03:36:18;;;;;;;68.63;36.60;;;2.30;85.00;;;;;;5098381;28;20043;-68
2022/03/16 03:38:44;;;;;;;87.17;41.90;;;2.30;85.10;;;;;;5072033;28;20031;-68
2022/03/16 03:41:10;;;;;;;72.97;39.20;;;2.30;85.00;;;;;;5125567;27;20036;-68
2022/03/16 03:43:36;;;;;;;89.13;42.13;;;2.30;85.20;;;;;;5075376;28;20064;-68
2022/03/16 03:46:01;;;;;;;74.00;38.53;;;2.30;85.20;;;;;;5106773;27;20286;-68
2022/03/16 03:48:27;;;;;;;84.73;41.07;;;2.30;85.10;;;;;;5066556;28;20178;-68
2022/03/16 03:50:53;;;;;;;66.13;36.77;;;2.30;85.20;;;;;;5087942;28;20042;-68
2022/03/16 03:53:18;;;;;;;77.93;38.63;;;2.30;85.10;;;;;;5062119;28;20472;-69
2022/03/16 03:55:44;;;;;;;74.43;40.00;;;2.30;85.10;;;;;;5075675;28;20483;-68
2022/03/16 03:58:10;;;;;;;72.67;39.43;;;2.30;85.20;;;;;;5106867;28;20110;-69
2022/03/16 04:00:35;;;;;;;70.00;39.27;;;2.30;85.10;;;;;;5107384;27;20039;-69
2022/03/16 04:03:01;;;;;;;87.83;43.03;;;2.30;85.20;;;;;;5066817;28;20412;-69
2022/03/16 04:05:27;;;;;;;70.97;37.97;;;2.20;85.20;;;;;;5093430;27;20034;-69
2022/03/16 04:07:52;;;;;;;74.37;39.37;;;2.20;85.20;;;;;;5091361;28;20055;-68
2022/03/16 04:10:18;;;;;;;87.50;43.17;;;2.20;85.20;;;;;;5093405;28;20051;-69
2022/03/16 04:12:44;;;;;;;95.07;44.20;;;2.30;85.30;;;;;;5122912;27;20043;-68
2022/03/16 04:15:10;;;;;;;137.40;50.33;;;2.30;85.60;;;;;;5092723;27;20122;-69
2022/03/16 04:17:36;;;;;;;125.15;46.65;;;2.30;85.50;;;;;;5094323;28;20074;-68
2022/03/16 04:20:02;;;;;;;79.07;40.03;;;2.30;85.60;;;;;;5077609;28;20078;-68
2022/03/16 04:22:28;;;;;;;71.97;40.53;;;2.30;85.60;;;;;;5077307;28;20732;-68
2022/03/16 04:24:55;;;;;;;98.70;42.83;;;2.30;85.50;;;;;;5106948;27;20091;-68
2022/03/16 04:27:21;;;;;;;82.28;40.28;;;2.30;85.50;;;;;;5074872;28;20036;-68
2022/03/16 04:29:47;;;;;;;95.53;43.33;;;2.30;85.60;;;;;;5061972;27;20079;-68
2022/03/16 04:32:13;;;;;;;76.33;40.57;;;2.30;85.50;;;;;;5089739;28;20071;-68
2022/03/16 04:34:39;;;;;;;73.87;39.47;;;2.30;85.60;;;;;;5129956;27;20512;-69
2022/03/16 04:37:05;;;;;;;63.60;36.83;;;2.30;85.60;;;;;;5087475;28;20040;-69
2022/03/16 04:39:31;;;;;;;69.82;38.60;;;2.30;85.40;;;;;;5108958;27;20066;-68
2022/03/16 04:41:57;;;;;;;70.57;39.38;;;2.30;85.50;;;;;;5082745;28;20036;-68
2022/03/16 04:44:23;;;;;;;76.40;41.00;;;2.30;85.60;;;;;;5095118;28;20040;-68
2022/03/16 04:46:49;;;;;;;91.68;44.65;;;2.30;85.70;;;;;;5093834;28;20040;-68
2022/03/16 04:49:15;;;;;;;67.17;38.03;;;2.40;85.80;;;;;;5097238;28;20058;-68
2022/03/16 04:51:40;;;;;;;71.80;39.90;;;2.40;85.90;;;;;;5105570;28;20077;-69
2022/03/16 04:54:08;;;;;;;75.77;41.00;;;2.40;85.90;;;;;;5084065;28;20515;-69
2022/03/16 04:56:35;;;;;;;78.35;43.50;;;2.40;86.00;;;;;;5073359;28;20728;-68
2022/03/16 04:59:01;;;;;;;62.90;37.72;;;2.40;85.90;;;;;;5088716;28;20040;-68
2022/03/16 05:01:27;;;;;;;67.47;39.13;;;2.50;85.90;;;;;;5092215;28;20118;-68
2022/03/16 05:03:53;;;;;;;67.50;38.85;;;2.50;85.90;;;;;;5094492;28;20472;-68
2022/03/16 05:06:19;;;;;;;71.67;40.63;;;2.50;85.80;;;;;;5074556;28;20039;-68
2022/03/16 05:08:47;;;;;;;79.68;42.00;;;2.50;85.90;;;;;;5094733;28;20047;-68
2022/03/16 05:11:13;;;;;;;90.35;44.33;;;2.50;86.00;;;;;;5097315;28;20047;-69
2022/03/16 05:13:39;;;;;;;75.57;40.45;;;2.50;85.90;;;;;;5108955;28;20089;-69
2022/03/16 05:16:06;;;;;;;65.78;37.67;;;2.50;86.00;;;;;;5076791;28;20142;-69
2022/03/16 05:18:33;;;;;;;66.65;38.25;;;2.50;86.00;;;;;;5093758;28;20110;-68
2022/03/16 05:20:59;;;;;;;64.13;37.40;;;2.50;86.00;;;;;;5068941;28;20032;-69
2022/03/16 05:23:25;;;;;;;71.63;38.20;;;2.50;86.10;;;;;;5097243;28;20035;-69
2022/03/16 05:25:50;;;;;;;67.67;38.00;;;2.50;86.00;;;;;;5059545;28;20028;-69
2022/03/16 05:28:19;;;;;;;65.00;36.60;;;2.50;86.00;;;;;;5126013;27;20093;-69
2022/03/16 05:30:44;;;;;;;55.25;33.88;;;2.50;86.10;;;;;;5122575;27;20039;-69
2022/03/16 05:33:10;;;;;;;61.17;35.80;;;2.50;86.00;;;;;;5101638;28;21065;-68
2022/03/16 05:35:36;;;;;;;67.00;38.13;;;2.50;86.10;;;;;;5089249;28;20602;-68
2022/03/16 05:38:05;;;;;;;63.28;37.88;;;2.50;86.00;;;;;;5088555;28;20043;-68
2022/03/16 05:40:32;;;;;;;78.32;41.05;;;2.50;86.10;;;;;;5088863;28;20040;-69
2022/03/16 05:42:58;;;;;;;65.68;36.90;;;2.50;86.10;;;;;;5076392;28;20046;-68
2022/03/16 05:45:23;;;;;;;68.43;39.40;;;2.50;86.10;;;;;;5105359;28;20040;-69
2022/03/16 05:47:49;;;;;;;59.33;35.67;;;2.50;86.00;;;;;;5100419;28;20035;-69
2022/03/16 05:50:15;;;;;;;57.55;35.40;;;2.50;86.10;;;;;;5125077;27;20173;-69
2022/03/16 05:52:43;;;;;;;74.97;41.00;;;2.50;86.00;;;;;;5104362;28;20728;-68
2022/03/16 05:55:09;;;;;;;69.07;38.15;;;2.50;86.20;;;;;;5089469;28;20161;-68
2022/03/16 05:57:40;;;;;;;72.13;40.47;;;2.50;86.00;;;;;;5087789;28;20051;-69
2022/03/16 06:00:08;;;;;;;63.65;37.45;;;2.50;86.10;;;;;;5103453;28;20051;-69
2022/03/16 06:02:34;;;;;;;63.45;37.35;;;2.50;86.10;;;;;;5088580;28;20051;-69
2022/03/16 06:05:00;;;;;;;69.07;38.77;;;2.50;86.10;;;;;;5091477;28;20410;-69
2022/03/16 06:07:26;;;;;;;65.77;38.80;;;2.50;86.10;;;;;;5075626;28;20044;-69
2022/03/16 06:09:51;;;;;;;70.30;39.60;;;2.50;86.10;;;;;;5125532;27;20130;-68
2022/03/16 06:12:17;;;;;;;70.50;40.50;;;2.50;86.10;;;;;;5107862;27;20047;-68
2022/03/16 06:14:42;;;;;;;70.97;39.10;;;2.50;86.20;;;;;;5109763;27;20039;-69
2022/03/16 06:17:08;;;;;;;74.13;41.83;;;2.50;86.20;;;;;;5107600;28;20039;-69
2022/03/16 06:19:34;;;;;;;70.40;40.77;;;2.60;86.20;;;;;;5091513;28;20039;-69
2022/03/16 06:22:00;;;;;;;75.30;42.20;;;2.60;86.30;;;;;;5097725;27;20050;-69
2022/03/16 06:24:26;;;;;;;75.37;42.10;;;2.60;86.30;;;;;;5061438;28;20360;-69
2022/03/16 06:26:52;;;;;;;72.30;41.37;;;2.70;86.40;;;;;;5083113;27;20445;-69
2022/03/16 06:29:17;;;;;;;71.73;42.20;;;2.70;86.30;;;;;;5111732;27;20055;-69
2022/03/16 06:31:43;;;;;;;77.50;42.60;;;2.80;86.30;;;;;;5110561;27;20461;-69
2022/03/16 06:34:09;;;;;;;70.53;40.37;;;2.80;86.20;;;;;;5128911;27;20126;-69
2022/03/16 06:36:34;;;;;;;65.93;38.77;;;2.90;86.20;;;;;;5100418;28;20484;-68
2022/03/16 06:39:00;;;;;;;73.83;40.63;;;2.90;86.20;;;;;;5099917;27;20446;-69
2022/03/16 06:41:26;;;;;;;67.40;40.67;;;3.00;86.10;;;;;;5092737;28;20043;-69
2022/03/16 06:43:51;;;;;;;71.83;42.73;;;3.10;86.10;;;;;;5074740;28;20032;-69
2022/03/16 06:46:17;;;;;;;72.43;42.70;;;3.10;86.00;;;;;;5109155;27;20117;-69
2022/03/16 06:48:43;;;;;;;66.33;40.27;;;3.20;86.00;;;;;;5094312;28;20086;-69
2022/03/16 06:51:09;;;;;;;79.47;42.20;;;3.20;85.90;;;;;;5096173;28;20040;-69
2022/03/16 06:53:35;;;;;;;74.17;41.70;;;3.30;86.00;;;;;;5077353;28;20039;-69
2022/03/16 06:56:03;;;;;;;68.55;41.78;;;3.40;86.00;;;;;;5091572;28;20766;-69
2022/03/16 06:58:29;;;;;;;74.18;43.10;;;3.40;86.00;;;;;;5077111;28;20047;-69
2022/03/16 07:00:55;;;;;;;64.43;39.35;;;3.40;86.10;;;;;;5113223;27;20304;-69
2022/03/16 07:03:22;;;;;;;65.10;40.10;;;3.50;86.00;;;;;;5080905;28;20032;-69
2022/03/16 07:05:48;;;;;;;70.13;42.45;;;3.60;86.00;;;;;;5090995;28;20404;-69
2022/03/16 07:08:15;;;;;;;71.55;40.80;;;3.60;86.00;;;;;;5109468;28;20081;-69
2022/03/16 07:10:43;;;;;;;61.70;38.20;;;3.70;86.00;;;;;;5106918;28;20043;-69
2022/03/16 07:13:13;;;;;;;62.03;39.15;;;3.80;85.90;;;;;;5126862;27;20513;-69
2022/03/16 07:15:41;;;;;;;60.45;39.17;;;3.80;86.00;;;;;;5088129;28;20564;-69
2022/03/16 07:18:06;;;;;;;66.63;39.95;;;3.90;86.00;;;;;;5103763;27;20070;-69
2022/03/16 07:20:33;;;;;;;61.13;39.13;;;4.00;85.90;;;;;;5078491;28;20071;-69
2022/03/16 07:23:09;;;;;;;64.55;40.78;;;4.10;85.90;;;;;;5099884;28;20043;-69
2022/03/16 07:25:37;;;;;;;64.03;41.28;;;4.20;85.90;;;;;;5094736;28;20050;-68
2022/03/16 07:28:03;;;;;;;57.40;38.67;;;4.30;85.80;;;;;;5125854;27;20055;-69
2022/03/16 07:30:29;;;;;;;63.10;40.63;;;4.40;85.70;;;;;;5094394;28;20507;-69
2022/03/16 07:32:54;;;;;;;60.70;39.43;;;4.40;85.70;;;;;;5110806;27;20479;-69
2022/03/16 07:35:26;;;;;;;62.23;40.37;;;4.50;85.60;;;;;;5111191;27;20507;-69
2022/03/16 07:37:53;;;;;;;56.75;40.25;;;4.70;85.60;;;;;;5118389;27;20050;-69
2022/03/16 07:40:18;;;;;;;62.47;40.70;;;4.80;85.50;;;;;;5077461;28;20039;-69
2022/03/16 07:42:48;;;;;;;58.27;39.60;;;4.90;85.60;;;;;;5093698;27;20039;-69
2022/03/16 07:45:15;;;;;;;57.03;39.80;;;5.00;85.40;;;;;;5107823;27;20165;-69
2022/03/16 07:47:42;;;;;;;59.58;39.80;;;5.10;85.30;;;;;;5092695;28;20051;-69
2022/03/16 07:50:09;;;;;;;56.25;40.15;;;5.20;85.10;;;;;;5109120;27;20208;-69
2022/03/16 07:52:35;;;;;;;58.70;40.92;;;5.40;85.20;;;;;;5112082;27;20057;-69
2022/03/16 07:55:01;;;;;;;55.60;39.28;;;5.50;85.00;;;;;;5076105;28;20055;-69
2022/03/16 07:57:27;;;;;;;52.58;38.47;;;5.60;84.80;;;;;;5088857;28;20048;-69
2022/03/16 07:59:54;;;;;;;56.77;39.50;;;5.70;84.70;;;;;;5100287;27;20038;-69
2022/03/16 08:02:20;;;;;;;55.13;39.45;;;5.80;84.50;;;;;;5091649;28;20531;-69
2022/03/16 08:04:46;;;;;;;54.93;39.13;;;5.90;84.30;;;;;;5074219;28;20035;-69
2022/03/16 08:07:12;;;;;;;54.27;39.23;;;6.00;84.10;;;;;;5059390;28;20040;-69
2022/03/16 08:09:37;;;;;;;55.27;39.30;;;6.10;84.10;;;;;;5077355;28;20048;-69
2022/03/16 08:12:04;;;;;;;57.47;39.60;;;6.20;83.90;;;;;;5074186;28;20035;-69
2022/03/16 08:14:29;;;;;;;56.80;41.42;;;6.30;83.80;;;;;;5091487;28;20054;-69
2022/03/16 08:16:55;;;;;;;55.50;40.77;;;6.40;83.80;;;;;;5097082;28;20047;-69
2022/03/16 08:19:21;;;;;;;58.60;42.27;;;6.60;83.50;;;;;;5079488;28;20142;-69
2022/03/16 08:21:48;;;;;;;54.97;40.30;;;6.70;83.60;;;;;;5094703;28;20416;-69
2022/03/16 08:24:14;;;;;;;56.13;41.08;;;6.90;83.40;;;;;;5090594;28;20365;-69
2022/03/16 08:26:40;;;;;;;53.33;39.00;;;7.10;83.40;;;;;;5105847;28;20430;-69
2022/03/16 08:29:06;;;;;;;53.03;38.13;;;7.20;82.80;;;;;;5123623;27;20113;-69
2022/03/16 08:31:32;;;;;;;54.00;37.55;;;7.40;82.70;;;;;;5122669;27;20048;-69
2022/03/16 08:33:58;;;;;;;51.50;35.60;;;7.60;82.70;;;;;;5089033;28;20481;-69
2022/03/16 08:36:23;;;;;;;46.00;33.70;;;7.80;82.30;;;;;;5086577;28;20043;-69
2022/03/16 08:38:49;;;;;;;47.23;33.83;;;8.00;81.60;;;;;;5123851;27;20297;-69
2022/03/16 08:41:15;;;;;;;40.77;29.47;;;8.10;81.00;;;;;;5085249;27;20088;-69
2022/03/16 08:43:40;;;;;;;39.57;28.33;;;8.10;80.20;;;;;;5091688;28;20031;-70
2022/03/16 08:46:06;;;;;;;40.60;29.17;;;8.10;79.40;;;;;;5108092;28;20483;-70
2022/03/16 08:48:32;;;;;;;37.40;26.30;;;8.10;79.60;;;;;;5092523;28;20486;-70
2022/03/16 08:50:58;;;;;;;38.73;25.77;;;8.10;79.40;;;;;;5069985;28;20048;-69
2022/03/16 08:53:24;;;;;;;32.63;24.50;;;8.20;78.80;;;;;;5104501;27;20035;-69
2022/03/16 08:55:50;;;;;;;35.55;24.23;;;8.20;78.90;;;;;;5087499;28;20035;-69
2022/03/16 08:58:17;;;;;;;32.47;23.17;;;8.30;79.30;;;;;;5070639;28;20411;-69
2022/03/16 09:00:42;;;;;;;32.53;21.05;;;8.40;79.20;;;;;;5121267;27;20111;-69
2022/03/16 09:03:08;;;;;;;28.50;20.00;;;8.60;78.80;;;;;;5075880;28;20126;-69
2022/03/16 09:05:34;;;;;;;28.50;19.75;;;8.80;77.60;;;;;;5061280;28;20381;-69
2022/03/16 09:08:00;;;;;;;28.37;20.23;;;8.90;77.30;;;;;;5068627;28;20051;-70
2022/03/16 09:10:27;;;;;;;26.43;19.43;;;9.10;76.70;;;;;;5104390;28;20058;-70
2022/03/16 09:12:52;;;;;;;27.88;18.58;;;9.30;76.30;;;;;;5072322;28;20127;-69
2022/03/16 09:15:18;;;;;;;34.27;19.73;;;9.40;75.60;;;;;;5090905;28;20126;-69
2022/03/16 09:17:44;;;;;;;26.60;18.30;;;9.50;75.60;;;;;;5047225;28;20285;-69
2022/03/16 09:20:10;;;;;;;25.07;17.47;;;9.60;74.80;;;;;;5062984;28;20039;-69
2022/03/16 09:22:35;;;;;;;23.30;17.20;;;9.80;74.90;;;;;;5107955;28;20036;-69
2022/03/16 09:25:01;;;;;;;23.47;16.40;;;9.90;74.10;;;;;;5054414;28;20034;-69
2022/03/16 09:27:27;;;;;;;23.90;14.80;;;10.00;73.00;;;;;;5088541;28;20040;-69
2022/03/16 09:29:55;;;;;;;23.50;16.10;;;10.00;72.30;;;;;;5061255;28;20414;-69
2022/03/16 09:32:21;;;;;;;24.98;15.20;;;10.10;71.60;;;;;;5075135;28;20119;-70
2022/03/16 09:34:49;;;;;;;24.98;16.20;;;10.20;70.60;;;;;;5095835;27;20056;-70
2022/03/16 09:37:15;;;;;;;22.60;15.82;;;10.30;71.00;;;;;;5087821;28;20035;-70
2022/03/16 09:39:41;;;;;;;22.37;16.37;;;10.40;70.20;;;;;;5085860;28;20035;-69
2022/03/16 09:42:08;;;;;;;21.08;14.93;;;10.50;69.70;;;;;;5108559;28;20054;-69
2022/03/16 09:44:34;;;;;;;23.15;15.10;;;10.60;69.70;;;;;;5079042;28;20047;-69
2022/03/16 09:47:00;;;;;;;21.35;15.02;;;10.70;70.00;;;;;;5103821;27;20173;-69
2022/03/16 09:49:27;;;;;;;21.48;14.52;;;10.80;68.20;;;;;;5090787;28;20054;-69
2022/03/16 09:51:54;;;;;;;21.15;14.77;;;10.90;68.30;;;;;;5108263;28;20043;-69
2022/03/16 09:54:24;;;;;;;23.98;15.00;;;11.00;68.20;;;;;;5079253;28;20043;-70
2022/03/16 09:56:49;;;;;;;22.65;14.23;;;11.10;66.90;;;;;;5096211;28;20391;-70
2022/03/16 09:59:16;;;;;;;20.47;13.83;;;11.10;66.70;;;;;;5106391;27;20036;-70
2022/03/16 10:01:42;;;;;;;21.38;14.23;;;11.20;66.60;;;;;;5125220;27;20039;-70
2022/03/16 10:04:09;;;;;;;19.75;12.80;;;11.20;65.90;;;;;;5081960;28;20050;-70
2022/03/16 10:06:36;;;;;;;19.63;12.77;;;11.30;64.40;;;;;;5098101;28;20044;-70
2022/03/16 10:15:10;;;;;;;21.10;13.38;;;11.40;63.60;;;;;;5097948;28;20650;-70
2022/03/16 10:17:46;;;;;;;17.57;13.07;;;11.40;63.80;;;;;;5095274;28;20044;-70
2022/03/16 10:20:21;;;;;;;18.23;12.40;;;11.50;63.20;;;;;;5101293;27;20652;-70
2022/03/16 10:23:05;;;;;;;20.40;12.23;;;11.60;62.50;;;;;;5106396;27;20687;-70
2022/03/16 10:25:34;;;;;;;19.43;12.40;;;11.70;62.10;;;;;;5082787;28;20077;-70
2022/03/16 10:28:10;;;;;;;15.73;11.30;;;11.80;61.80;;;;;;5125142;27;20860;-70
2022/03/16 10:30:37;;;;;;;16.67;12.13;;;11.90;61.50;;;;;;5122521;27;20285;-70
2022/03/16 10:33:04;;;;;;;16.60;12.27;;;11.90;61.80;;;;;;5092443;27;20285;-70
2022/03/16 10:35:29;;;;;;;19.73;13.17;;;11.90;60.50;;;;;;5074779;28;20925;-70
2022/03/16 10:38:10;;;;;;;17.93;12.50;;;12.00;60.90;;;;;;5071999;27;20290;-70
2022/03/16 10:40:36;;;;;;;19.93;12.53;;;12.10;61.50;;;;;;5087992;28;20475;-70
2022/03/16 10:49:10;;;;;;;15.80;11.27;;;12.30;60.10;;;;;;5124024;27;20359;-70
2022/03/16 10:51:36;;;;;;;17.67;11.70;;;12.30;58.20;;;;;;5072349;28;20273;-70
2022/03/16 10:54:04;;;;;;;15.07;10.83;;;12.40;58.50;;;;;;5086374;28;20619;-70
2022/03/16 10:56:31;;;;;;;16.10;10.30;;;12.50;57.60;;;;;;5078553;28;20368;-70
2022/03/16 10:58:59;;;;;;;14.73;11.10;;;12.50;57.80;;;;;;5110551;27;20646;-70
2022/03/16 11:01:27;;;;;;;17.80;11.50;;;12.70;58.40;;;;;;5088315;28;20318;-70
2022/03/16 11:03:55;;;;;;;14.40;10.47;;;12.90;58.70;;;;;;5120409;27;20277;-70
2022/03/16 11:06:21;;;;;;;17.50;10.53;;;13.10;58.10;;;;;;5125945;27;20342;-70
2022/03/16 11:08:49;;;;;;;13.33;10.30;;;13.20;57.60;;;;;;5110674;27;20292;-70
2022/03/16 11:14:02;;;;;;;13.67;9.67;;;13.40;54.90;;;;;;5107218;27;20380;-70
2022/03/16 11:16:30;;;;;;;16.53;11.03;;;13.40;56.00;;;;;;5081734;27;20281;-70
2022/03/16 11:19:04;;;;;;;14.27;9.87;;;13.50;56.60;;;;;;5099071;28;20281;-70
2022/03/16 11:21:44;;;;;;;15.70;9.75;;;13.50;55.40;;;;;;5127233;27;20371;-70
2022/03/16 11:24:16;;;;;;;12.23;9.10;;;13.60;55.40;;;;;;5107373;28;20376;-70
2022/03/16 11:27:20;;;;;;;15.47;9.83;;;13.60;54.90;;;;;;5111599;27;20281;-70
2022/03/16 11:30:07;;;;;;;17.23;9.73;;;13.60;53.30;;;;;;5124951;27;20286;-70
2022/03/16 11:32:42;;;;;;;12.20;9.20;;;13.60;54.00;;;;;;5085840;27;20297;-70
2022/03/16 11:35:17;;;;;;;10.88;7.72;;;13.60;54.50;;;;;;5109035;27;20342;-70
2022/03/16 11:37:50;;;;;;;12.43;8.93;;;13.70;54.50;;;;;;5106213;27;20062;-70
2022/03/16 11:40:22;;;;;;;14.50;9.67;;;13.70;54.00;;;;;;5112192;27;20765;-70
2022/03/16 11:43:04;;;;;;;13.10;8.93;;;13.70;54.00;;;;;;5108946;27;20847;-70
2022/03/16 11:46:02;;;;;;;13.47;8.33;;;13.70;52.50;;;;;;5117968;27;20641;-70
2022/03/16 11:48:31;;;;;;;10.50;8.37;;;13.70;53.30;;;;;;5098547;28;20683;-70
2022/03/16 11:51:08;;;;;;;13.57;8.97;;;13.70;52.40;;;;;;5091108;27;20352;-70
2022/03/16 11:53:51;;;;;;;14.30;9.33;;;13.80;52.00;;;;;;5118622;27;20280;-70
2022/03/16 11:56:26;;;;;;;12.93;8.77;;;13.80;52.60;;;;;;5123340;27;20384;-70
2022/03/16 11:58:59;;;;;;;14.57;9.17;;;13.80;52.80;;;;;;5088431;27;20289;-70
2022/03/16 12:01:33;;;;;;;10.87;8.50;;;13.90;52.80;;;;;;5100527;28;20778;-70
2022/03/16 12:04:25;;;;;;;15.07;9.07;;;14.00;51.90;;;;;;5080613;27;20361;-70
2022/03/16 12:07:08;;;;;;;14.13;9.37;;;14.00;52.70;;;;;;5106124;27;20789;-70
2022/03/16 12:09:49;;;;;;;12.93;8.90;;;14.10;52.30;;;;;;5108717;28;20307;-70
2022/03/16 12:15:11;;;;;;;16.97;9.90;;;14.20;52.70;;;;;;5097193;27;20307;-70
2022/03/16 12:18:01;;;;;;;13.60;9.43;;;14.30;52.30;;;;;;5107586;28;20300;-70
2022/03/16 12:20:28;;;;;;;13.20;9.90;;;14.40;52.00;;;;;;5124626;27;20433;-70
2022/03/16 12:22:59;;;;;;;14.00;9.90;;;14.40;52.30;;;;;;5106711;28;20354;-70
2022/03/16 12:25:27;;;;;;;15.13;10.07;;;14.40;52.00;;;;;;5084890;27;20844;-70
2022/03/16 12:30:58;;;;;;;12.70;9.63;;;14.50;51.20;;;;;;5103398;27;20288;-70
2022/03/16 12:33:25;;;;;;;13.73;9.70;;;14.50;51.70;;;;;;5128777;27;20293;-70
2022/03/16 12:35:53;;;;;;;13.10;10.17;;;14.60;51.10;;;;;;5085834;27;20948;-70
2022/03/16 12:38:22;;;;;;;14.07;9.80;;;14.60;51.40;;;;;;5072502;28;20685;-70
2022/03/16 12:43:33;;;;;;;12.83;9.90;;;14.70;51.10;;;;;;5094993;28;20293;-70
2022/03/16 12:46:37;;;;;;;13.13;9.43;;;14.70;51.00;;;;;;5083403;28;20730;-70
2022/03/16 12:49:11;;;;;;;13.87;9.57;;;14.80;51.50;;;;;;5116176;27;20285;-70
2022/03/16 12:51:50;;;;;;;12.73;9.10;;;14.90;50.40;;;;;;5088828;28;20568;-71
2022/03/16 12:54:26;;;;;;;13.13;9.07;;;14.90;50.90;;;;;;5096087;28;20065;-71
2022/03/16 12:56:54;;;;;;;11.17;8.67;;;15.00;50.60;;;;;;5099289;28;20274;-71
2022/03/16 12:59:26;;;;;;;15.73;11.00;;;15.00;50.10;;;;;;5097450;28;20806;-71
2022/03/16 13:01:55;;;;;;;14.30;10.20;;;14.90;49.50;;;;;;5079729;28;20278;-71